BAW392 EGHQ-EGLL
Flight info
| Callsign | BAW392 |
|---|---|
| Flight time | 0h 39m |
| Altitude | 23000 |
| Route | DAWLY N17 OTMET |
| Aircraft | A20N/M-SDE2E3FGHIRWXY/LB1 |
Departure
| Time | 2026-05-09 22:10 |
|---|---|
| Airport | Cornwall Airport Newquay (EGHQ) |
Arrival
| Time | 2026-05-09 22:50 |
|---|---|
| Airport | London Heathrow Airport (EGLL) |
| Time | Latitude | Longitude | Altitude | Speed | Heading |
|---|---|---|---|---|---|
| 2026-05-09 21:45 | 50.44653 | -5.00382 | 330 ft | 0 kts | 74° |
| 2026-05-09 22:02 | 50.44652 | -5.00389 | 326 ft | 3 kts | 74° |
| 2026-05-09 22:02 | 50.44646 | -5.00430 | 327 ft | 4 kts | 82° |
| 2026-05-09 22:02 | 50.44644 | -5.00472 | 325 ft | 4 kts | 94° |
| 2026-05-09 22:02 | 50.44648 | -5.00513 | 324 ft | 4 kts | 115° |
| 2026-05-09 22:03 | 50.44652 | -5.00525 | 325 ft | 1 kts | 121° |
| 2026-05-09 22:05 | 50.44650 | -5.00519 | 325 ft | 3 kts | 121° |
| 2026-05-09 22:06 | 50.44626 | -5.00457 | 326 ft | 10 kts | 121° |
| 2026-05-09 22:06 | 50.44580 | -5.00338 | 330 ft | 15 kts | 120° |
| 2026-05-09 22:06 | 50.44522 | -5.00179 | 336 ft | 16 kts | 120° |
| 2026-05-09 22:06 | 50.44458 | -5.00005 | 339 ft | 21 kts | 120° |
| 2026-05-09 22:07 | 50.44378 | -4.99793 | 353 ft | 24 kts | 122° |
| 2026-05-09 22:07 | 50.44297 | -4.99579 | 352 ft | 24 kts | 121° |
| 2026-05-09 22:07 | 50.44214 | -4.99358 | 362 ft | 25 kts | 120° |
| 2026-05-09 22:07 | 50.44122 | -4.99112 | 363 ft | 28 kts | 120° |
| 2026-05-09 22:08 | 50.44017 | -4.98834 | 370 ft | 26 kts | 120° |
| 2026-05-09 22:08 | 50.43935 | -4.98616 | 375 ft | 25 kts | 120° |
| 2026-05-09 22:08 | 50.43841 | -4.98365 | 381 ft | 28 kts | 121° |
| 2026-05-09 22:08 | 50.43737 | -4.98093 | 388 ft | 30 kts | 121° |
| 2026-05-09 22:09 | 50.43619 | -4.97877 | 393 ft | 25 kts | 152° |
| 2026-05-09 22:09 | 50.43480 | -4.97875 | 398 ft | 16 kts | 219° |
| 2026-05-09 22:09 | 50.43494 | -4.97991 | 394 ft | 11 kts | 300° |
| 2026-05-09 22:09 | 50.43499 | -4.98003 | 395 ft | 0 kts | 300° |
| 2026-05-09 22:10 | 50.43607 | -4.98283 | 389 ft | 67 kts | 301° |
| 2026-05-09 22:10 | 50.43967 | -4.99241 | 365 ft | 135 kts | 300° |
| 2026-05-09 22:10 | 50.44489 | -5.00688 | 636 ft | 159 kts | 305° |
| 2026-05-09 22:10 | 50.45152 | -5.02074 | 1213 ft | 158 kts | 325° |
| 2026-05-09 22:11 | 50.46091 | -5.02824 | 1819 ft | 162 kts | 4° |
| 2026-05-09 22:11 | 50.47215 | -5.02180 | 2088 ft | 193 kts | 47° |
| 2026-05-09 22:11 | 50.47765 | -5.00113 | 2477 ft | 225 kts | 85° |
| 2026-05-09 22:11 | 50.47536 | -4.97602 | 3261 ft | 240 kts | 105° |
| 2026-05-09 22:12 | 50.46892 | -4.95154 | 4280 ft | 245 kts | 114° |
| 2026-05-09 22:12 | 50.46186 | -4.92700 | 5314 ft | 248 kts | 103° |
| 2026-05-09 22:12 | 50.45916 | -4.90032 | 6383 ft | 249 kts | 92° |
| 2026-05-09 22:12 | 50.45942 | -4.87290 | 7307 ft | 254 kts | 85° |
| 2026-05-09 22:13 | 50.46148 | -4.84485 | 8148 ft | 262 kts | 82° |
| 2026-05-09 22:13 | 50.46441 | -4.81654 | 9194 ft | 263 kts | 80° |
| 2026-05-09 22:13 | 50.46754 | -4.78821 | 10206 ft | 267 kts | 80° |
| 2026-05-09 22:13 | 50.47072 | -4.75832 | 10651 ft | 291 kts | 81° |
| 2026-05-09 22:14 | 50.47395 | -4.72559 | 10964 ft | 317 kts | 81° |
| 2026-05-09 22:14 | 50.47718 | -4.69032 | 11451 ft | 335 kts | 82° |
| 2026-05-09 22:14 | 50.48035 | -4.65373 | 12034 ft | 349 kts | 82° |
| 2026-05-09 22:14 | 50.48361 | -4.61483 | 12798 ft | 359 kts | 83° |
| 2026-05-09 22:15 | 50.48686 | -4.57560 | 13616 ft | 367 kts | 83° |
| 2026-05-09 22:15 | 50.49016 | -4.53549 | 14405 ft | 373 kts | 83° |
| 2026-05-09 22:15 | 50.49351 | -4.49486 | 15170 ft | 378 kts | 83° |
| 2026-05-09 22:15 | 50.49686 | -4.45420 | 15951 ft | 383 kts | 83° |
| 2026-05-09 22:16 | 50.50029 | -4.41249 | 16743 ft | 388 kts | 84° |
| 2026-05-09 22:16 | 50.50376 | -4.37011 | 17463 ft | 394 kts | 83° |
| 2026-05-09 22:16 | 50.50725 | -4.32728 | 18280 ft | 397 kts | 83° |
| 2026-05-09 22:16 | 50.51077 | -4.28410 | 18825 ft | 402 kts | 84° |
| 2026-05-09 22:17 | 50.51431 | -4.24034 | 19048 ft | 405 kts | 84° |
| 2026-05-09 22:17 | 50.51785 | -4.19639 | 19086 ft | 405 kts | 83° |
| 2026-05-09 22:17 | 50.52138 | -4.15248 | 19085 ft | 406 kts | 84° |
| 2026-05-09 22:17 | 50.52489 | -4.10839 | 19086 ft | 406 kts | 84° |
| 2026-05-09 22:18 | 50.52838 | -4.06448 | 19087 ft | 406 kts | 84° |
| 2026-05-09 22:18 | 50.53186 | -4.02030 | 19203 ft | 408 kts | 84° |
| 2026-05-09 22:18 | 50.53535 | -3.97588 | 19797 ft | 411 kts | 84° |
| 2026-05-09 22:18 | 50.53885 | -3.93108 | 20465 ft | 415 kts | 84° |
| 2026-05-09 22:19 | 50.54234 | -3.88622 | 21214 ft | 416 kts | 85° |
| 2026-05-09 22:19 | 50.54587 | -3.84059 | 21792 ft | 422 kts | 85° |
| 2026-05-09 22:19 | 50.54940 | -3.79462 | 22435 ft | 425 kts | 84° |
| 2026-05-09 22:19 | 50.55295 | -3.74829 | 22937 ft | 428 kts | 85° |
| 2026-05-09 22:20 | 50.55650 | -3.70175 | 23091 ft | 431 kts | 84° |
| 2026-05-09 22:20 | 50.56004 | -3.65502 | 23089 ft | 430 kts | 85° |
| 2026-05-09 22:20 | 50.56357 | -3.60822 | 23098 ft | 430 kts | 84° |
| 2026-05-09 22:20 | 50.56705 | -3.56189 | 23094 ft | 430 kts | 84° |
| 2026-05-09 22:21 | 50.57054 | -3.51510 | 23082 ft | 430 kts | 85° |
| 2026-05-09 22:21 | 50.57407 | -3.46845 | 23080 ft | 430 kts | 84° |
| 2026-05-09 22:21 | 50.57853 | -3.42192 | 23088 ft | 430 kts | 83° |
| 2026-05-09 22:21 | 50.58376 | -3.37550 | 23093 ft | 431 kts | 82° |
| 2026-05-09 22:22 | 50.58932 | -3.32928 | 23073 ft | 431 kts | 81° |
| 2026-05-09 22:22 | 50.59498 | -3.28293 | 23087 ft | 431 kts | 81° |
| 2026-05-09 22:22 | 50.60059 | -3.23662 | 23078 ft | 431 kts | 81° |
| 2026-05-09 22:22 | 50.60612 | -3.19031 | 23083 ft | 431 kts | 82° |
| 2026-05-09 22:23 | 50.61154 | -3.14391 | 23075 ft | 431 kts | 81° |
| 2026-05-09 22:23 | 50.61689 | -3.09748 | 23083 ft | 431 kts | 82° |
| 2026-05-09 22:23 | 50.62221 | -3.05096 | 23087 ft | 432 kts | 82° |
| 2026-05-09 22:23 | 50.62750 | -3.00452 | 23072 ft | 431 kts | 82° |
| 2026-05-09 22:24 | 50.63278 | -2.95794 | 23072 ft | 432 kts | 83° |
| 2026-05-09 22:24 | 50.63802 | -2.91141 | 23085 ft | 431 kts | 82° |
| 2026-05-09 22:24 | 50.64324 | -2.86498 | 23082 ft | 431 kts | 81° |
| 2026-05-09 22:24 | 50.64845 | -2.81848 | 23084 ft | 431 kts | 82° |
| 2026-05-09 22:25 | 50.65364 | -2.77202 | 23066 ft | 431 kts | 82° |
| 2026-05-09 22:25 | 50.65874 | -2.72623 | 23074 ft | 431 kts | 82° |
| 2026-05-09 22:25 | 50.66389 | -2.67968 | 23077 ft | 431 kts | 82° |
| 2026-05-09 22:25 | 50.66903 | -2.63315 | 23082 ft | 431 kts | 82° |
| 2026-05-09 22:26 | 50.67415 | -2.58659 | 23072 ft | 431 kts | 82° |
| 2026-05-09 22:26 | 50.67909 | -2.54015 | 23074 ft | 430 kts | 84° |
| 2026-05-09 22:26 | 50.68078 | -2.49309 | 23084 ft | 428 kts | 92° |
| 2026-05-09 22:26 | 50.67944 | -2.44632 | 23076 ft | 428 kts | 95° |
| 2026-05-09 22:27 | 50.67746 | -2.39948 | 23086 ft | 428 kts | 96° |
| 2026-05-09 22:27 | 50.67539 | -2.35269 | 23071 ft | 428 kts | 96° |
| 2026-05-09 22:27 | 50.67333 | -2.30591 | 23075 ft | 429 kts | 96° |
| 2026-05-09 22:27 | 50.67126 | -2.25889 | 23067 ft | 430 kts | 96° |
| 2026-05-09 22:28 | 50.66920 | -2.21186 | 23070 ft | 431 kts | 96° |
| 2026-05-09 22:28 | 50.66712 | -2.16469 | 23081 ft | 431 kts | 96° |
| 2026-05-09 22:28 | 50.66503 | -2.11753 | 23070 ft | 431 kts | 96° |
| 2026-05-09 22:28 | 50.66294 | -2.07066 | 23074 ft | 431 kts | 96° |
| 2026-05-09 22:29 | 50.66135 | -2.02322 | 23081 ft | 432 kts | 93° |
| 2026-05-09 22:29 | 50.66145 | -1.97589 | 23074 ft | 433 kts | 91° |
| 2026-05-09 22:29 | 50.66201 | -1.92849 | 23075 ft | 433 kts | 91° |
| 2026-05-09 22:29 | 50.66262 | -1.88110 | 23070 ft | 433 kts | 91° |
| 2026-05-09 22:30 | 50.66320 | -1.83364 | 23074 ft | 434 kts | 91° |
| 2026-05-09 22:30 | 50.66375 | -1.78601 | 23079 ft | 437 kts | 91° |
| 2026-05-09 22:30 | 50.66428 | -1.73804 | 23076 ft | 438 kts | 91° |
| 2026-05-09 22:30 | 50.66478 | -1.69002 | 23073 ft | 438 kts | 91° |
| 2026-05-09 22:31 | 50.66526 | -1.64163 | 22993 ft | 447 kts | 91° |
| 2026-05-09 22:31 | 50.66580 | -1.59273 | 22285 ft | 448 kts | 90° |
| 2026-05-09 22:31 | 50.66994 | -1.54366 | 21224 ft | 455 kts | 76° |
| 2026-05-09 22:31 | 50.68142 | -1.49680 | 20213 ft | 460 kts | 66° |
| 2026-05-09 22:32 | 50.69528 | -1.45182 | 19675 ft | 451 kts | 64° |
| 2026-05-09 22:32 | 50.70905 | -1.40808 | 19210 ft | 440 kts | 64° |
| 2026-05-09 22:32 | 50.72249 | -1.36515 | 18762 ft | 433 kts | 65° |
| 2026-05-09 22:32 | 50.73570 | -1.32267 | 18276 ft | 431 kts | 65° |
| 2026-05-09 22:33 | 50.74889 | -1.28031 | 17782 ft | 428 kts | 63° |
| 2026-05-09 22:33 | 50.76505 | -1.24108 | 17332 ft | 426 kts | 50° |
| 2026-05-09 22:33 | 50.78711 | -1.21027 | 16890 ft | 423 kts | 36° |
| 2026-05-09 22:33 | 50.81141 | -1.18428 | 16434 ft | 421 kts | 33° |
| 2026-05-09 22:34 | 50.83598 | -1.15922 | 15991 ft | 418 kts | 32° |
| 2026-05-09 22:34 | 50.86032 | -1.13442 | 15551 ft | 415 kts | 33° |
| 2026-05-09 22:34 | 50.88446 | -1.10968 | 15112 ft | 412 kts | 33° |
| 2026-05-09 22:34 | 50.90831 | -1.08513 | 14675 ft | 409 kts | 33° |
| 2026-05-09 22:35 | 50.93203 | -1.06061 | 14247 ft | 406 kts | 33° |
| 2026-05-09 22:35 | 50.95554 | -1.03626 | 13818 ft | 403 kts | 33° |
| 2026-05-09 22:35 | 50.97896 | -1.01196 | 13358 ft | 401 kts | 33° |
| 2026-05-09 22:35 | 51.00173 | -0.98665 | 13084 ft | 398 kts | 39° |
| 2026-05-09 22:36 | 51.02153 | -0.95637 | 12586 ft | 394 kts | 47° |
| 2026-05-09 22:36 | 51.03989 | -0.92413 | 12187 ft | 391 kts | 49° |
| 2026-05-09 22:36 | 51.05748 | -0.89257 | 11916 ft | 379 kts | 49° |
| 2026-05-09 22:36 | 51.07459 | -0.86182 | 11657 ft | 365 kts | 49° |
| 2026-05-09 22:37 | 51.09136 | -0.83175 | 11312 ft | 354 kts | 49° |
| 2026-05-09 22:37 | 51.10731 | -0.80318 | 10970 ft | 345 kts | 49° |
| 2026-05-09 22:37 | 51.12323 | -0.77467 | 10625 ft | 336 kts | 48° |
| 2026-05-09 22:37 | 51.13837 | -0.74754 | 10299 ft | 328 kts | 49° |
| 2026-05-09 22:38 | 51.15346 | -0.72049 | 10067 ft | 317 kts | 48° |
| 2026-05-09 22:38 | 51.16760 | -0.69512 | 9919 ft | 304 kts | 48° |
| 2026-05-09 22:38 | 51.18139 | -0.67037 | 9725 ft | 293 kts | 48° |
| 2026-05-09 22:39 | 51.20788 | -0.62274 | 9060 ft | 282 kts | 49° |
| 2026-05-09 22:39 | 51.22083 | -0.59943 | 8667 ft | 279 kts | 49° |
| 2026-05-09 22:39 | 51.23364 | -0.57635 | 8311 ft | 276 kts | 49° |
| 2026-05-09 22:40 | 51.25886 | -0.53085 | 7585 ft | 271 kts | 49° |
| 2026-05-09 22:40 | 51.27128 | -0.50845 | 7221 ft | 269 kts | 48° |
| 2026-05-09 22:40 | 51.28540 | -0.48927 | 6914 ft | 268 kts | 28° |
| 2026-05-09 22:40 | 51.30347 | -0.48339 | 6586 ft | 270 kts | 355° |
| 2026-05-09 22:41 | 51.32062 | -0.49493 | 6270 ft | 273 kts | 321° |
| 2026-05-09 22:41 | 51.33365 | -0.51723 | 5864 ft | 276 kts | 309° |
| 2026-05-09 22:41 | 51.34407 | -0.54291 | 5506 ft | 274 kts | 302° |
| 2026-05-09 22:41 | 51.35303 | -0.56968 | 5213 ft | 273 kts | 299° |
| 2026-05-09 22:42 | 51.36156 | -0.59677 | 4902 ft | 272 kts | 299° |
| 2026-05-09 22:42 | 51.37013 | -0.62372 | 4581 ft | 271 kts | 300° |
| 2026-05-09 22:42 | 51.37891 | -0.65036 | 4273 ft | 271 kts | 301° |
| 2026-05-09 22:42 | 51.38794 | -0.67676 | 3965 ft | 270 kts | 302° |
| 2026-05-09 22:43 | 51.39714 | -0.70296 | 3645 ft | 270 kts | 303° |
| 2026-05-09 22:43 | 51.40645 | -0.72905 | 3338 ft | 269 kts | 303° |
| 2026-05-09 22:43 | 51.41661 | -0.75406 | 3043 ft | 265 kts | 318° |
| 2026-05-09 22:43 | 51.43145 | -0.77012 | 2987 ft | 255 kts | 345° |
| 2026-05-09 22:44 | 51.44858 | -0.77192 | 2986 ft | 245 kts | 17° |
| 2026-05-09 22:44 | 51.46370 | -0.76214 | 2907 ft | 226 kts | 35° |
| 2026-05-09 22:44 | 51.47375 | -0.74449 | 2812 ft | 208 kts | 66° |
| 2026-05-09 22:44 | 51.47661 | -0.72299 | 2691 ft | 189 kts | 84° |
| 2026-05-09 22:45 | 51.47692 | -0.70299 | 2528 ft | 169 kts | 87° |
| 2026-05-09 22:45 | 51.47685 | -0.68567 | 2495 ft | 140 kts | 87° |
| 2026-05-09 22:45 | 51.47678 | -0.67159 | 2504 ft | 117 kts | 86° |
| 2026-05-09 22:45 | 51.47649 | -0.65864 | 2314 ft | 118 kts | 89° |
| 2026-05-09 22:46 | 51.47634 | -0.65005 | 2181 ft | 116 kts | 86° |
| 2026-05-09 22:46 | 51.47644 | -0.63742 | 2007 ft | 110 kts | 86° |
| 2026-05-09 22:46 | 51.47651 | -0.62539 | 1859 ft | 107 kts | 86° |
| 2026-05-09 22:47 | 51.47658 | -0.60145 | 1565 ft | 108 kts | 86° |
| 2026-05-09 22:47 | 51.47664 | -0.58946 | 1420 ft | 108 kts | 86° |
| 2026-05-09 22:47 | 51.47672 | -0.57737 | 1270 ft | 109 kts | 87° |
| 2026-05-09 22:47 | 51.47679 | -0.56515 | 1123 ft | 110 kts | 86° |
| 2026-05-09 22:48 | 51.47688 | -0.55272 | 973 ft | 113 kts | 87° |
| 2026-05-09 22:48 | 51.47696 | -0.54008 | 810 ft | 114 kts | 88° |
| 2026-05-09 22:48 | 51.47704 | -0.52721 | 651 ft | 116 kts | 87° |
| 2026-05-09 22:48 | 51.47713 | -0.51414 | 494 ft | 118 kts | 88° |
| 2026-05-09 22:49 | 51.47733 | -0.50105 | 323 ft | 117 kts | 87° |
| 2026-05-09 22:49 | 51.47750 | -0.48811 | 180 ft | 117 kts | 87° |
| 2026-05-09 22:49 | 51.47755 | -0.47511 | 104 ft | 116 kts | 89° |
| 2026-05-09 22:49 | 51.47759 | -0.46362 | 94 ft | 74 kts | 90° |
| 2026-05-09 22:50 | 51.47760 | -0.45988 | 88 ft | 12 kts | 90° |
| 2026-05-09 22:50 | 51.47760 | -0.45730 | 90 ft | 26 kts | 90° |
| 2026-05-09 22:50 | 51.47724 | -0.45480 | 90 ft | 21 kts | 152° |
| 2026-05-09 22:50 | 51.47597 | -0.45509 | 91 ft | 17 kts | 242° |
| 2026-05-09 22:51 | 51.47596 | -0.45699 | 90 ft | 18 kts | 269° |
| 2026-05-09 22:51 | 51.47595 | -0.45909 | 92 ft | 20 kts | 270° |
| 2026-05-09 22:51 | 51.47595 | -0.46137 | 93 ft | 21 kts | 270° |
| 2026-05-09 22:51 | 51.47594 | -0.46382 | 93 ft | 23 kts | 269° |
| 2026-05-09 22:52 | 51.47592 | -0.46640 | 89 ft | 24 kts | 269° |
| 2026-05-09 22:52 | 51.47582 | -0.46910 | 93 ft | 25 kts | 267° |
| 2026-05-09 22:52 | 51.47582 | -0.47190 | 91 ft | 26 kts | 270° |
| 2026-05-09 22:52 | 51.47582 | -0.47480 | 93 ft | 26 kts | 270° |
| 2026-05-09 22:53 | 51.47579 | -0.47776 | 90 ft | 27 kts | 268° |
| 2026-05-09 22:53 | 51.47578 | -0.48077 | 92 ft | 27 kts | 270° |
| 2026-05-09 22:53 | 51.47545 | -0.48352 | 91 ft | 24 kts | 201° |
| 2026-05-09 22:53 | 51.47454 | -0.48468 | 91 ft | 15 kts | 198° |
| 2026-05-09 22:54 | 51.47346 | -0.48472 | 92 ft | 16 kts | 178° |
| 2026-05-09 22:54 | 51.47228 | -0.48472 | 91 ft | 18 kts | 180° |
| 2026-05-09 22:54 | 51.47099 | -0.48472 | 92 ft | 19 kts | 180° |
| 2026-05-09 22:54 | 51.46959 | -0.48472 | 91 ft | 21 kts | 180° |
| 2026-05-09 22:55 | 51.46884 | -0.48510 | 90 ft | 8 kts | 247° |
| 2026-05-09 22:55 | 51.46876 | -0.48605 | 89 ft | 10 kts | 267° |
| 2026-05-09 22:55 | 51.46875 | -0.48723 | 89 ft | 12 kts | 270° |
| 2026-05-09 22:55 | 51.46884 | -0.48840 | 91 ft | 6 kts | 308° |
| 2026-05-09 22:56 | 51.46920 | -0.48858 | 94 ft | 6 kts | 358° |
| 2026-05-09 22:56 | 51.46929 | -0.48859 | 93 ft | 0 kts | 359° |